CheckWX is a tool to help pilots better visualize weather data.  It is not intended as a substitute for an official pre-flight weather briefing.

01:55:39 UTC

KSLC METAR
Salt Lake City International Airport
Salt Lake City, Utah, USA
Current

1 hour ago

KSLC 240054Z 18010KT 10SM FEW060 SCT090 01/M10 A3018 RMK AO2 SLP244 ACSL DSNT ALQDS T00111100
Observed
Feb-24 @ 00:54 UTC
Wind
  • 180° at 10 KTS
Visibility
10 SM
Flight Rules
VFR
Cloud Levels
  • Few at 6,000' AGL
  • Scattered at 9,000' AGL
Temperature
C / 34°F
Dewpoint
-10°C / 14°F
Humidity
44%
Altimeter
30.18" Hg
Pressure
1024.4 hPa
Previous

2 hours ago

KSLC 232354Z 16012KT 10SM SCT065 BKN090 02/M10 A3019 RMK AO2 SLP246 ACSL DSNT ALQDS T00171100 10022 21017 55001
Observed
Feb-23 @ 23:54 UTC
Wind
  • 160° at 12 KTS
Visibility
10 SM
Flight Rules
VFR
Cloud Levels
  • Scattered at 6,500' AGL
  • Broken at 9,000' AGL
Temperature
C / 36°F
Dewpoint
-10°C / 14°F
Humidity
41%
Altimeter
30.19" Hg
Pressure
1024.6 hPa
Previous

3 hours ago

KSLC 232254Z 19010KT 10SM SCT070 BKN090 02/M09 A3019 RMK AO2 SLP242 T00221094
Observed
Feb-23 @ 22:54 UTC
Wind
  • 190° at 10 KTS
Visibility
10 SM
Flight Rules
VFR
Cloud Levels
  • Scattered at 7,000' AGL
  • Broken at 9,000' AGL
Temperature
C / 36°F
Dewpoint
-9°C / 16°F
Humidity
44%
Altimeter
30.19" Hg
Pressure
1024.2 hPa